Time;durP1;ratioP1;P1;durP2;ratioP2;P2;SDS_P1;SDS_P2;PMS_P1;PMS_P2;Temp;Humidity;BMP_temperature;BMP_pressure;BME280_temperature;BME280_humidity;BME280_pressure;Samples;Min_cycle;Max_cycle;Signal;HPM_P1;HPM_P2
2023/11/17 00:01:08;;;;;;;44.30;29.80;;;;;;;7.49;100.00;99524.13;178074;1262;46116;-87
2023/11/17 00:05:21;;;;;;;56.20;34.20;;;;;;;7.57;100.00;99523.80;177963;1263;46136;-86
2023/11/17 00:09:25;;;;;;;59.80;34.40;;;;;;;7.71;100.00;99522.92;178126;1259;45984;-86
2023/11/17 00:13:28;;;;;;;48.80;32.60;;;;;;;7.83;100.00;99521.06;178306;1260;45984;-82
2023/11/17 00:17:33;;;;;;;45.50;33.80;;;;;;;7.93;100.00;99523.78;177904;1260;58237;-88
2023/11/17 00:21:36;;;;;;;53.20;35.00;;;;;;;7.92;100.00;99525.96;178395;1259;45986;-88
2023/11/17 00:25:40;;;;;;;46.10;32.00;;;;;;;7.91;100.00;99524.83;178250;1263;46452;-85
2023/11/17 00:29:43;;;;;;;53.90;37.10;;;;;;;7.71;100.00;99525.34;178594;1263;46487;-87
2023/11/17 00:33:47;;;;;;;272.20;145.60;;;;;;;7.51;100.00;99528.58;177980;1259;44726;-87
2023/11/17 00:37:51;;;;;;;224.00;120.40;;;;;;;7.38;100.00;99531.16;177868;1260;58096;-86
2023/11/17 00:41:55;;;;;;;264.50;136.10;;;;;;;7.38;100.00;99532.98;180237;1258;44020;-85
2023/11/17 00:45:59;;;;;;;255.70;131.30;;;;;;;7.37;100.00;99538.33;178320;1263;46178;-86
2023/11/17 00:50:03;;;;;;;206.00;107.20;;;;;;;7.34;100.00;99540.15;177890;1260;46058;-85
2023/11/17 00:54:07;;;;;;;280.70;147.10;;;;;;;7.39;100.00;99542.06;177732;1260;46088;-85
2023/11/17 00:58:10;;;;;;;73.40;36.30;;;;;;;7.46;100.00;99548.04;177910;1261;58202;-85
2023/11/17 01:02:15;;;;;;;40.70;27.70;;;;;;;7.54;100.00;99548.79;178097;1260;46027;-88
2023/11/17 01:06:18;;;;;;;42.70;26.90;;;;;;;7.60;100.00;99546.15;178337;1261;45959;-84
2023/11/17 01:10:22;;;;;;;39.00;28.90;;;;;;;7.74;100.00;99538.19;178244;1260;45640;-88
2023/11/17 01:14:25;;;;;;;197.40;110.40;;;;;;;7.72;100.00;99537.82;178553;1261;45866;-86
2023/11/17 01:18:29;;;;;;;118.00;61.00;;;;;;;7.67;100.00;99539.09;178579;1261;59445;-89
2023/11/17 01:22:32;;;;;;;52.90;33.60;;;;;;;7.66;100.00;99537.63;178070;1261;46117;-89
2023/11/17 01:26:35;;;;;;;40.50;27.10;;;;;;;7.62;100.00;99542.84;178460;1261;46111;-85
2023/11/17 01:30:38;;;;;;;37.60;25.70;;;;;;;7.52;100.00;99548.08;178218;1260;45990;-86
2023/11/17 01:34:41;;;;;;;43.30;28.80;;;;;;;7.45;100.00;99545.80;178310;1260;45901;-88
2023/11/17 01:38:45;;;;;;;34.60;24.00;;;;;;;7.44;100.00;99549.27;178251;1259;60598;-88
2023/11/17 01:43:06;;;;;;;33.20;26.00;;;;;;;7.38;100.00;99549.16;178898;1260;45958;-88
2023/11/17 01:47:10;;;;;;;46.00;29.20;;;;;;;7.30;100.00;99551.23;178498;1260;46124;-84
2023/11/17 01:51:13;;;;;;;44.80;24.30;;;;;;;7.24;100.00;99549.95;177826;1259;44041;-87
2023/11/17 01:55:18;;;;;;;39.50;27.30;;;;;;;7.15;100.00;99550.80;177926;1259;46111;-87
2023/11/17 01:59:21;;;;;;;38.90;27.70;;;;;;;7.06;100.00;99552.09;177681;1261;59937;-87
2023/11/17 02:03:25;;;;;;;41.20;27.90;;;;;;;7.02;100.00;99556.63;177849;1260;45981;-84
2023/11/17 02:07:43;;;;;;;54.30;31.70;;;;;;;7.04;100.00;99557.16;177574;1264;44749;-87
2023/11/17 02:11:58;;;;;;;44.70;27.30;;;;;;;7.10;100.00;99554.20;177720;1260;46150;-86
2023/11/17 02:16:02;;;;;;;41.30;27.90;;;;;;;7.22;100.00;99552.75;177713;1264;46114;-88
2023/11/17 02:20:12;;;;;;;40.90;29.20;;;;;;;7.24;100.00;99554.52;177684;1259;59546;-86
2023/11/17 02:24:16;;;;;;;41.60;28.40;;;;;;;7.20;100.00;99561.00;177559;1261;46021;-85
2023/11/17 02:28:34;;;;;;;55.80;33.90;;;;;;;7.24;100.00;99567.02;177441;1259;45912;-84
2023/11/17 02:32:38;;;;;;;47.60;26.50;;;;;;;7.19;100.00;99575.38;177259;1264;46182;-85
2023/11/17 02:36:45;;;;;;;38.00;25.90;;;;;;;7.19;100.00;99578.02;177093;1259;45984;-81
2023/11/17 02:40:55;;;;;;;35.90;24.10;;;;;;;7.14;100.00;99585.60;177270;1260;59539;-86
2023/11/17 02:45:00;;;;;;;29.50;20.20;;;;;;;7.15;100.00;99586.95;177445;1261;46056;-87
2023/11/17 02:49:10;;;;;;;28.80;19.80;;;;;;;7.15;100.00;99585.02;177327;1260;45960;-87
2023/11/17 02:53:18;;;;;;;21.10;16.20;;;;;;;7.12;100.00;99590.87;177064;1263;46208;-87
2023/11/17 02:57:26;;;;;;;23.20;14.50;;;;;;;7.11;100.00;99592.42;177000;1263;46086;-82
2023/11/17 03:01:29;;;;;;;24.20;11.50;;;;;;;7.01;100.00;99600.22;176723;1260;58435;-87
2023/11/17 03:05:33;;;;;;;36.10;20.00;;;;;;;7.02;100.00;99607.05;177466;1258;45974;-85
2023/11/17 03:09:37;;;;;;;39.60;22.20;;;;;;;7.05;100.00;99610.15;177873;1259;45997;-85
2023/11/17 03:13:40;;;;;;;38.90;24.90;;;;;;;7.02;100.00;99616.68;176888;1261;46095;-85
2023/11/17 03:17:43;;;;;;;40.30;21.80;;;;;;;7.01;100.00;99616.05;176928;1259;46123;-85
2023/11/17 03:21:47;;;;;;;38.80;19.10;;;;;;;7.00;100.00;99613.34;177724;1260;59294;-85
2023/11/17 03:25:52;;;;;;;37.00;22.70;;;;;;;6.99;100.00;99614.09;177439;1259;46108;-87
2023/11/17 03:29:56;;;;;;;23.90;14.90;;;;;;;6.94;100.00;99618.35;177455;1259;46098;-88
2023/11/17 03:34:01;;;;;;;24.90;15.20;;;;;;;6.87;100.00;99621.22;177099;1260;46192;-86
2023/11/17 03:38:04;;;;;;;19.80;14.20;;;;;;;6.77;100.00;99623.41;177073;1259;46089;-86
2023/11/17 03:42:10;;;;;;;20.70;13.70;;;;;;;6.65;100.00;99626.88;176813;1259;59616;-87
2023/11/17 03:46:14;;;;;;;12.10;9.50;;;;;;;6.61;100.00;99629.54;176815;1261;46122;-88
2023/11/17 03:50:17;;;;;;;15.30;10.00;;;;;;;6.63;100.00;99639.22;177708;1259;46028;-86
2023/11/17 03:54:21;;;;;;;15.70;10.50;;;;;;;6.56;100.00;99644.66;177966;1259;46230;-86
2023/11/17 03:58:26;;;;;;;24.70;14.30;;;;;;;6.52;100.00;99658.89;177701;1259;45886;-85
2023/11/17 04:02:29;;;;;;;31.40;19.20;;;;;;;6.48;100.00;99659.02;177550;1259;59247;-86
2023/11/17 04:06:34;;;;;;;29.20;16.00;;;;;;;6.36;100.00;99660.25;177295;1259;46101;-87
2023/11/17 04:10:37;;;;;;;22.00;15.70;;;;;;;6.24;100.00;99666.56;176961;1260;46018;-86
2023/11/17 04:14:42;;;;;;;31.40;17.80;;;;;;;6.11;100.00;99672.80;177041;1259;46301;-85
2023/11/17 04:18:46;;;;;;;13.40;10.40;;;;;;;5.97;100.00;99673.63;176985;1260;46138;-85
2023/11/17 04:22:49;;;;;;;13.70;10.20;;;;;;;5.82;100.00;99671.32;177125;1261;59498;-88
2023/11/17 04:26:52;;;;;;;18.00;12.30;;;;;;;5.82;100.00;99674.13;176921;1260;45808;-85
2023/11/17 04:30:56;;;;;;;23.50;14.40;;;;;;;5.87;100.00;99677.30;177121;1261;46167;-86
2023/11/17 04:35:00;;;;;;;14.20;11.10;;;;;;;5.85;100.00;99681.13;177451;1260;46156;-86
2023/11/17 04:39:11;;;;;;;43.70;26.00;;;;;;;5.85;100.00;99680.98;177578;1259;46118;-86
2023/11/17 04:43:14;;;;;;;19.00;12.40;;;;;;;5.83;100.00;99691.31;177673;1259;59629;-85
2023/11/17 04:47:17;;;;;;;14.40;9.90;;;;;;;5.83;100.00;99697.44;176863;1259;46014;-82
2023/11/17 04:51:21;;;;;;;10.60;6.70;;;;;;;5.73;100.00;99702.39;176776;1259;46161;-87
2023/11/17 04:55:25;;;;;;;11.00;6.60;;;;;;;5.58;100.00;99702.90;176770;1263;46201;-85
2023/11/17 04:59:28;;;;;;;12.70;10.20;;;;;;;5.47;100.00;99711.60;176801;1260;46145;-81
2023/11/17 05:03:32;;;;;;;21.00;13.90;;;;;;;5.34;100.00;99712.15;176947;1259;59544;-87
2023/11/17 05:07:35;;;;;;;13.30;9.40;;;;;;;5.25;100.00;99712.94;177065;1259;45576;-87
2023/11/17 05:11:39;;;;;;;7.20;5.90;;;;;;;5.16;100.00;99715.81;177238;1260;46096;-86
2023/11/17 05:15:43;;;;;;;9.30;5.80;;;;;;;4.99;100.00;99720.15;177829;1259;45760;-85
2023/11/17 05:19:46;;;;;;;10.90;5.80;;;;;;;4.87;100.00;99717.92;177086;1259;46085;-86
2023/11/17 05:23:50;;;;;;;9.30;5.30;;;;;;;4.81;100.00;99726.06;178721;1259;58724;-84
2023/11/17 05:27:53;;;;;;;13.60;10.20;;;;;;;4.89;100.00;99734.66;176877;1259;45989;-86
2023/11/17 05:31:56;;;;;;;13.00;8.90;;;;;;;4.98;100.00;99743.39;177120;1259;46120;-79
2023/11/17 05:35:59;;;;;;;14.90;8.40;;;;;;;5.02;100.00;99742.80;176824;1262;46425;-84
2023/11/17 05:40:07;;;;;;;14.80;8.10;;;;;;;5.04;100.00;99749.86;177888;1259;46055;-83
2023/11/17 05:44:10;;;;;;;8.30;7.40;;;;;;;4.94;100.00;99760.16;177521;1262;59625;-85
2023/11/17 05:48:13;;;;;;;11.60;6.80;;;;;;;4.72;100.00;99768.45;177275;1259;45951;-85
2023/11/17 05:52:17;;;;;;;12.60;8.80;;;;;;;4.42;100.00;99768.82;177874;1259;45990;-86
2023/11/17 05:56:20;;;;;;;17.10;12.20;;;;;;;4.24;100.00;99775.58;177798;1260;46338;-85
2023/11/17 06:00:27;;;;;;;13.00;8.00;;;;;;;4.10;100.00;99788.18;177442;1259;45953;-87
2023/11/17 06:04:31;;;;;;;16.50;13.10;;;;;;;3.94;100.00;99792.70;177391;1259;59550;-86
2023/11/17 06:08:37;;;;;;;17.10;13.50;;;;;;;3.94;100.00;99793.95;177355;1259;46445;-85
2023/11/17 06:12:41;;;;;;;28.50;16.60;;;;;;;3.79;100.00;99798.19;178012;1259;46055;-84
2023/11/17 06:16:44;;;;;;;20.80;16.30;;;;;;;3.76;100.00;99803.78;178726;1259;45988;-85
2023/11/17 06:20:49;;;;;;;26.70;15.60;;;;;;;3.74;100.00;99814.41;177302;1259;45990;-88
2023/11/17 06:24:52;;;;;;;21.80;16.10;;;;;;;3.66;100.00;99823.34;177280;1259;58551;-86
2023/11/17 06:28:57;;;;;;;20.00;12.00;;;;;;;3.64;100.00;99829.27;176984;1259;46433;-87
2023/11/17 06:33:04;;;;;;;18.00;12.40;;;;;;;3.61;100.00;99840.31;176639;1261;45994;-88
2023/11/17 06:37:07;;;;;;;22.50;10.90;;;;;;;3.59;100.00;99846.40;176810;1259;46079;-86
2023/11/17 06:41:14;;;;;;;17.90;12.20;;;;;;;3.55;100.00;99852.05;178187;1258;46104;-86
2023/11/17 06:45:17;;;;;;;12.70;8.80;;;;;;;3.64;100.00;99854.70;177237;1262;59537;-86
2023/11/17 06:49:22;;;;;;;15.60;11.60;;;;;;;3.65;100.00;99865.14;177333;1259;47701;-86
2023/11/17 06:53:29;;;;;;;17.70;12.30;;;;;;;3.71;100.00;99866.18;177567;1259;45965;-85
2023/11/17 06:57:32;;;;;;;14.90;10.70;;;;;;;3.77;100.00;99870.05;177568;1261;223121;-85
2023/11/17 07:01:39;;;;;;;14.30;10.70;;;;;;;3.81;100.00;99866.66;177455;1259;46185;-86
2023/11/17 07:05:42;;;;;;;20.00;12.00;;;;;;;3.83;100.00;99868.11;176902;1262;58793;-86
2023/11/17 07:09:46;;;;;;;14.20;11.30;;;;;;;3.93;100.00;99878.36;177460;1259;45508;-86
2023/11/17 07:13:49;;;;;;;15.00;10.40;;;;;;;4.00;100.00;99882.33;177463;1259;45994;-85
2023/11/17 07:17:56;;;;;;;19.20;10.40;;;;;;;4.08;100.00;99885.34;176937;1260;46042;-85
2023/11/17 07:22:01;;;;;;;16.40;11.10;;;;;;;4.11;100.00;99889.77;177097;1259;46079;-85
2023/11/17 07:26:04;;;;;;;12.40;8.30;;;;;;;4.17;100.00;99897.46;177192;1259;58243;-85
2023/11/17 07:30:14;;;;;;;8.10;6.60;;;;;;;4.17;100.00;99899.41;177724;1259;45952;-85
2023/11/17 07:34:18;;;;;;;13.00;8.70;;;;;;;4.16;100.00;99911.23;177471;1259;45914;-84
2023/11/17 07:38:22;;;;;;;10.20;8.90;;;;;;;4.26;100.00;99916.79;177425;1259;46330;-87
2023/11/17 07:42:25;;;;;;;14.60;10.60;;;;;;;4.33;100.00;99928.46;177135;1262;46233;-87
2023/11/17 07:46:29;;;;;;;6.80;5.30;;;;;;;4.28;100.00;99925.39;177749;1259;58282;-87
2023/11/17 07:50:32;;;;;;;10.20;6.50;;;;;;;4.30;100.00;99930.77;177359;1260;46090;-87
2023/11/17 07:54:36;;;;;;;14.80;8.10;;;;;;;4.37;100.00;99939.42;177049;1259;46215;-87
2023/11/17 07:58:39;;;;;;;7.50;4.50;;;;;;;4.29;100.00;99939.60;176856;1259;46114;-86
2023/11/17 08:02:44;;;;;;;11.30;6.50;;;;;;;4.21;100.00;99941.80;177348;1259;46006;-80
2023/11/17 08:06:48;;;;;;;7.50;4.90;;;;;;;4.19;100.00;99945.25;177422;1259;58278;-82
2023/11/17 08:10:51;;;;;;;12.20;6.70;;;;;;;4.14;100.00;99950.14;177034;1259;46193;-87
2023/11/17 08:14:56;;;;;;;14.80;7.00;;;;;;;4.20;100.00;99962.95;177057;1258;46017;-86
2023/11/17 08:19:03;;;;;;;9.20;5.80;;;;;;;4.19;100.00;99961.95;176831;1259;46027;-87
2023/11/17 08:23:24;;;;;;;7.90;5.10;;;;;;;4.17;100.00;99968.02;177129;1258;45965;-85
2023/11/17 08:27:28;;;;;;;6.30;3.60;;;;;;;4.16;100.00;99980.77;177809;1259;59855;-86
2023/11/17 08:31:32;;;;;;;8.30;6.70;;;;;;;4.10;100.00;99982.83;177448;1259;46079;-88
2023/11/17 08:35:38;;;;;;;9.00;6.40;;;;;;;3.99;100.00;99983.49;177133;1259;46111;-87
2023/11/17 08:39:41;;;;;;;13.40;5.70;;;;;;;3.98;100.00;99991.10;177576;1259;44829;-87
2023/11/17 08:43:45;;;;;;;12.80;7.30;;;;;;;3.99;100.00;100005.38;177731;1259;46342;-87
2023/11/17 08:52:37;;;;;;;12.00;7.20;;;;;;;4.09;100.00;100020.45;173263;1264;44394;-79
2023/11/17 08:56:41;;;;;;;9.40;5.50;;;;;;;4.05;100.00;100020.32;180723;1262;43863;-83
2023/11/17 09:00:44;;;;;;;19.10;10.90;;;;;;;4.09;100.00;100034.31;180928;1263;44096;-79
2023/11/17 09:04:47;;;;;;;12.20;7.50;;;;;;;4.07;100.00;100036.33;180687;1263;44369;-80
2023/11/17 09:08:50;;;;;;;13.20;6.20;;;;;;;3.94;100.00;100042.52;180826;1262;57477;-80
2023/11/17 09:12:54;;;;;;;10.90;8.30;;;;;;;4.01;100.00;100043.34;180782;1263;43865;-80
2023/11/17 09:16:57;;;;;;;9.00;6.10;;;;;;;4.05;100.00;100044.15;180713;1263;44198;-80
2023/11/17 09:21:00;;;;;;;7.10;5.80;;;;;;;4.07;100.00;100050.05;180688;1264;43885;-80
2023/11/17 09:25:13;;;;;;;7.00;6.30;;;;;;;4.27;100.00;100046.80;180814;1264;43769;-80
2023/11/17 09:29:16;;;;;;;10.20;7.90;;;;;;;4.48;100.00;100061.50;180746;1262;58433;-80
2023/11/17 09:33:20;;;;;;;10.70;8.60;;;;;;;4.58;100.00;100056.16;180645;1264;44094;-80
2023/11/17 09:37:23;;;;;;;9.60;8.00;;;;;;;4.67;100.00;100059.52;180670;1263;43965;-80
2023/11/17 09:41:27;;;;;;;8.50;6.70;;;;;;;4.75;100.00;100054.98;180717;1264;43890;-80
2023/11/17 09:45:32;;;;;;;8.20;6.20;;;;;;;4.66;100.00;100053.25;180611;1264;44065;-83
2023/11/17 09:49:42;;;;;;;7.90;5.40;;;;;;;4.74;100.00;100054.88;180922;1256;94184;-60
2023/11/17 09:53:47;;;;;;;6.80;5.30;;;;;;;4.83;100.00;100050.11;180667;1263;44414;-89
2023/11/17 09:57:55;;;;;;;8.20;4.00;;;;;;;4.75;100.00;100056.58;180722;1264;44091;-84
2023/11/17 10:01:59;;;;;;;7.90;4.70;;;;;;;4.65;100.00;100046.25;180714;1263;43982;-86
2023/11/17 10:06:04;;;;;;;5.00;4.20;;;;;;;4.67;100.00;100055.79;180823;1263;43859;-86
2023/11/17 10:10:14;;;;;;;8.10;3.90;;;;;;;4.46;100.00;100056.86;180619;1263;58661;-89
2023/11/17 10:14:26;;;;;;;3.30;2.90;;;;;;;4.37;100.00;100061.99;180739;1263;44067;-89
2023/11/17 10:18:32;;;;;;;9.00;5.40;;;;;;;4.39;100.00;100044.80;180659;1263;44120;-87
2023/11/17 10:22:42;;;;;;;6.80;5.60;;;;;;;4.61;100.00;100040.16;180750;1263;43789;-88
2023/11/17 10:26:47;;;;;;;6.90;4.80;;;;;;;4.79;100.00;100036.27;180690;1263;43854;-88
2023/11/17 10:30:54;;;;;;;7.50;5.10;;;;;;;4.93;100.00;100043.67;180631;1262;58385;-89
2023/11/17 10:35:24;;;;;;;4.20;3.50;;;;;;;5.10;100.00;100034.36;180660;1264;44125;-86
2023/11/17 10:39:28;;;;;;;5.20;3.80;;;;;;;5.09;100.00;100032.14;180723;1264;44135;-88
2023/11/17 10:43:46;;;;;;;4.00;3.30;;;;;;;5.18;100.00;100031.11;180767;1263;44232;-88
2023/11/17 10:47:50;;;;;;;4.70;3.00;;;;;;;5.28;100.00;100034.67;180776;1263;44087;-87
2023/11/17 10:51:54;;;;;;;4.00;3.30;;;;;;;5.37;100.00;100030.44;180788;1264;59541;-89
2023/11/17 10:55:58;;;;;;;4.80;3.10;;;;;;;5.41;100.00;100030.34;180713;1263;43863;-87
2023/11/17 11:00:17;;;;;;;4.10;3.40;;;;;;;5.21;100.00;100047.36;180842;1264;43873;-88
2023/11/17 11:04:29;;;;;;;6.90;4.20;;;;;;;5.23;100.00;100041.31;180619;1263;44642;-89
2023/11/17 11:08:34;;;;;;;7.10;4.00;;;;;;;5.32;100.00;100035.14;180605;1263;44109;-88
2023/11/17 11:12:38;;;;;;;7.90;4.10;;;;;;;5.13;100.00;100035.61;180725;1263;58304;-88
2023/11/17 11:16:46;;;;;;;5.20;4.00;;;;;;;5.05;100.00;100034.35;180594;1263;44127;-88
2023/11/17 11:20:50;;;;;;;8.80;5.40;;;;;;;4.95;100.00;100038.14;180667;1263;43860;-87
2023/11/17 11:24:54;;;;;;;7.90;4.80;;;;;;;4.88;100.00;100030.63;180670;1263;43848;-89
2023/11/17 11:28:58;;;;;;;6.70;5.20;;;;;;;4.95;100.00;100031.95;180678;1263;44075;-88
2023/11/17 11:33:02;;;;;;;5.10;4.40;;;;;;;4.87;100.00;100032.25;180672;1263;59570;-88
2023/11/17 11:37:07;;;;;;;6.10;4.70;;;;;;;4.88;100.00;100030.65;180669;1263;44589;-89
2023/11/17 11:41:11;;;;;;;7.40;3.80;;;;;;;4.90;100.00;100022.80;180736;1263;43951;-88
2023/11/17 11:45:20;;;;;;;6.60;4.60;;;;;;;4.95;100.00;100033.34;180725;1263;43832;-87
2023/11/17 11:49:23;;;;;;;5.20;4.00;;;;;;;4.95;100.00;100028.27;180720;1263;44029;-89
2023/11/17 11:53:49;;;;;;;8.40;5.10;;;;;;;4.97;100.00;100026.04;180833;1263;58304;-90
2023/11/17 11:57:58;;;;;;;6.40;5.30;;;;;;;4.94;100.00;100028.35;180714;1263;44205;-88
2023/11/17 12:02:03;;;;;;;5.80;4.10;;;;;;;4.96;100.00;100033.83;180635;1264;43870;-86
2023/11/17 12:06:06;;;;;;;6.50;5.70;;;;;;;4.98;100.00;100033.73;180732;1263;44108;-87
2023/11/17 12:10:15;;;;;;;5.20;4.50;;;;;;;4.96;100.00;100034.52;180694;1264;43971;-85
2023/11/17 12:14:26;;;;;;;7.00;3.90;;;;;;;4.94;100.00;100039.23;180755;1263;59619;-83
2023/11/17 12:18:32;;;;;;;8.90;4.60;;;;;;;5.06;100.00;100033.41;180612;1263;44044;-84
2023/11/17 12:27:05;;;;;;;6.10;3.10;;;;;;;5.15;100.00;100043.59;175632;1258;101789;-80
2023/11/17 12:31:14;;;;;;;4.40;3.10;;;;;;;5.25;100.00;100043.98;180771;1263;44062;-79
2023/11/17 12:35:21;;;;;;;5.30;4.90;;;;;;;5.22;100.00;100044.39;180780;1262;58023;-79
2023/11/17 12:39:40;;;;;;;13.50;4.50;;;;;;;5.25;100.00;100048.03;180668;1262;44163;-79
2023/11/17 12:43:49;;;;;;;4.20;3.20;;;;;;;5.16;100.00;100047.05;180823;1262;43809;-79
2023/11/17 12:47:56;;;;;;;4.10;3.10;;;;;;;5.32;100.00;100042.67;180705;1262;47464;-80
2023/11/17 12:52:07;;;;;;;3.90;3.50;;;;;;;5.19;100.00;100048.43;180799;1262;43821;-79
2023/11/17 12:56:12;;;;;;;5.90;2.90;;;;;;;5.16;100.00;100059.34;180685;1262;59427;-79
2023/11/17 13:00:16;;;;;;;7.80;3.00;;;;;;;5.10;100.00;100063.74;180861;1262;43883;-80
2023/11/17 13:04:25;;;;;;;2.00;1.80;;;;;;;5.07;100.00;100072.01;180729;1262;43854;-80
2023/11/17 13:08:28;;;;;;;2.70;2.20;;;;;;;5.06;100.00;100071.17;180774;1262;43915;-76
2023/11/17 13:12:32;;;;;;;3.60;2.60;;;;;;;5.03;100.00;100069.27;180712;1262;43857;-80
2023/11/17 13:16:35;;;;;;;2.90;2.10;;;;;;;5.05;100.00;100079.34;180717;1262;59602;-80
2023/11/17 13:20:39;;;;;;;2.30;2.10;;;;;;;5.12;100.00;100080.82;180758;1262;44252;-80
2023/11/17 13:24:44;;;;;;;3.40;3.20;;;;;;;5.13;100.00;100086.23;180749;1262;43800;-80
2023/11/17 13:28:51;;;;;;;5.20;2.50;;;;;;;5.05;100.00;100084.61;180988;1258;93897;-59
2023/11/17 13:33:01;;;;;;;3.80;3.40;;;;;;;4.95;100.00;100085.89;180891;1263;43756;-88
2023/11/17 13:37:09;;;;;;;3.90;3.10;;;;;;;4.95;100.00;100093.46;180865;1263;57904;-88
2023/11/17 13:41:12;;;;;;;2.90;2.50;;;;;;;4.95;100.00;100089.60;180759;1266;44064;-88
2023/11/17 13:45:15;;;;;;;3.70;3.00;;;;;;;4.95;100.00;100097.15;180949;1262;43723;-88
2023/11/17 13:49:19;;;;;;;5.00;3.90;;;;;;;5.02;100.00;100100.80;180809;1264;45154;-88
2023/11/17 13:53:23;;;;;;;5.70;2.10;;;;;;;4.98;100.00;100105.77;180887;1262;44200;-86
2023/11/17 13:57:31;;;;;;;5.80;4.50;;;;;;;4.89;100.00;100105.27;180848;1264;57950;-88
2023/11/17 14:01:35;;;;;;;5.00;2.90;;;;;;;4.84;100.00;100112.42;180862;1264;44150;-88
2023/11/17 14:05:38;;;;;;;5.10;3.40;;;;;;;4.77;100.00;100118.96;180896;1264;43944;-88
2023/11/17 14:09:45;;;;;;;3.40;2.90;;;;;;;4.82;100.00;100120.59;180867;1264;43848;-83
2023/11/17 14:13:52;;;;;;;4.90;2.70;;;;;;;4.81;100.00;100132.10;180892;1263;43774;-86
2023/11/17 14:17:56;;;;;;;5.90;3.80;;;;;;;4.85;100.00;100128.67;180868;1263;59748;-88
2023/11/17 14:21:59;;;;;;;4.40;3.90;;;;;;;4.83;100.00;100140.02;180783;1264;43945;-87
2023/11/17 14:26:03;;;;;;;10.80;6.10;;;;;;;4.82;100.00;100143.11;180795;1264;43694;-87
2023/11/17 14:30:07;;;;;;;3.30;3.00;;;;;;;4.80;100.00;100150.81;180873;1262;44064;-87
2023/11/17 14:34:21;;;;;;;5.20;4.30;;;;;;;4.73;100.00;100155.25;180877;1262;43989;-88
2023/11/17 14:38:27;;;;;;;5.00;3.50;;;;;;;4.69;100.00;100155.67;181020;1262;58295;-87
2023/11/17 14:42:30;;;;;;;7.40;3.10;;;;;;;4.77;100.00;100164.52;180868;1262;43941;-87
2023/11/17 14:46:35;;;;;;;4.70;3.90;;;;;;;4.78;100.00;100167.23;180779;1262;43925;-87
2023/11/17 14:50:39;;;;;;;5.20;3.40;;;;;;;4.72;100.00;100166.54;180669;1262;43818;-89
2023/11/17 14:54:42;;;;;;;6.40;4.60;;;;;;;4.63;100.00;100171.46;180856;1263;43853;-87
2023/11/17 14:58:45;;;;;;;11.70;5.50;;;;;;;4.72;100.00;100179.04;180817;1262;58537;-88
2023/11/17 15:02:51;;;;;;;6.80;4.20;;;;;;;4.70;100.00;100182.10;180858;1263;43957;-87
2023/11/17 15:06:59;;;;;;;9.50;5.60;;;;;;;4.72;100.00;100183.73;180861;1264;43847;-86
2023/11/17 15:11:02;;;;;;;5.50;4.80;;;;;;;4.72;100.00;100184.96;180849;1264;43951;-88
2023/11/17 15:15:11;;;;;;;6.20;4.30;;;;;;;4.75;100.00;100194.10;180735;1264;43804;-88
2023/11/17 15:19:16;;;;;;;7.10;6.20;;;;;;;4.72;100.00;100193.45;180781;1262;60383;-88
2023/11/17 15:23:20;;;;;;;8.30;7.00;;;;;;;4.79;100.00;100204.42;180841;1262;43883;-86
2023/11/17 15:27:24;;;;;;;15.10;6.80;;;;;;;4.74;100.00;100205.58;180916;1263;43759;-86
2023/11/17 15:31:31;;;;;;;10.70;5.50;;;;;;;4.71;100.00;100209.81;180830;1262;43878;-86
2023/11/17 15:35:36;;;;;;;6.80;4.30;;;;;;;4.80;100.00;100204.35;180878;1262;43940;-88
2023/11/17 15:39:39;;;;;;;6.80;5.30;;;;;;;4.84;100.00;100213.94;180841;1264;58038;-88
2023/11/17 15:43:43;;;;;;;8.60;5.00;;;;;;;4.87;100.00;100218.21;180789;1264;44027;-87
2023/11/17 15:47:47;;;;;;;4.80;4.30;;;;;;;4.87;100.00;100216.80;180728;1263;44155;-85
2023/11/17 15:51:51;;;;;;;5.20;4.20;;;;;;;4.81;100.00;100225.09;180689;1262;44007;-86
2023/11/17 15:55:55;;;;;;;6.30;4.90;;;;;;;4.85;100.00;100229.40;180697;1264;43704;-88
2023/11/17 15:59:58;;;;;;;8.80;6.00;;;;;;;4.91;100.00;100236.05;180762;1262;58656;-86
2023/11/17 16:04:03;;;;;;;10.40;5.70;;;;;;;4.90;100.00;100238.25;180467;1264;43794;-86
2023/11/17 16:08:07;;;;;;;9.20;4.70;;;;;;;5.01;100.00;100233.88;180753;1264;44170;-88
2023/11/17 16:12:14;;;;;;;7.40;5.00;;;;;;;4.99;100.00;100242.27;180713;1263;44218;-86
2023/11/17 16:16:20;;;;;;;4.90;4.50;;;;;;;4.89;100.00;100245.15;180647;1263;43824;-87
2023/11/17 16:20:31;;;;;;;6.20;4.20;;;;;;;4.92;100.00;100247.77;180809;1263;59652;-80
2023/11/17 16:24:36;;;;;;;4.40;4.00;;;;;;;4.97;100.00;100256.63;180781;1264;44089;-80
2023/11/17 16:28:42;;;;;;;11.00;4.80;;;;;;;4.93;100.00;100266.84;180631;1264;44162;-81
2023/11/17 16:32:54;;;;;;;9.30;5.90;;;;;;;5.03;100.00;100268.94;180823;1262;44027;-80
2023/11/17 16:36:58;;;;;;;6.80;4.60;;;;;;;5.03;100.00;100272.08;180853;1264;44038;-79
2023/11/17 16:41:03;;;;;;;6.80;3.80;;;;;;;4.98;100.00;100272.37;180815;1264;59667;-80
2023/11/17 16:45:07;;;;;;;6.40;4.60;;;;;;;5.02;100.00;100280.06;180768;1264;43775;-81
2023/11/17 16:49:11;;;;;;;3.90;3.10;;;;;;;5.01;100.00;100284.67;180895;1262;43809;-80
2023/11/17 16:53:16;;;;;;;5.30;4.70;;;;;;;4.98;100.00;100289.42;180881;1264;44009;-80
2023/11/17 16:57:20;;;;;;;5.40;4.90;;;;;;;5.00;100.00;100290.91;180817;1262;43770;-80
2023/11/17 17:01:23;;;;;;;5.80;3.80;;;;;;;5.02;100.00;100293.98;180759;1262;58783;-81
2023/11/17 17:05:28;;;;;;;8.70;4.40;;;;;;;5.03;100.00;100298.50;180818;1262;43939;-81
2023/11/17 17:09:31;;;;;;;9.10;5.60;;;;;;;5.06;100.00;100307.81;180838;1264;43952;-81
2023/11/17 17:13:36;;;;;;;6.20;3.60;;;;;;;5.10;100.00;100310.73;180840;1262;43688;-81
2023/11/17 17:17:40;;;;;;;6.90;4.90;;;;;;;5.15;100.00;100315.16;180817;1263;44018;-79
2023/11/17 17:21:44;;;;;;;7.00;4.30;;;;;;;5.13;100.00;100316.13;180826;1262;59540;-79
2023/11/17 17:25:47;;;;;;;5.90;4.80;;;;;;;5.18;100.00;100318.00;180830;1259;43874;-88
2023/11/17 17:29:50;;;;;;;5.60;3.40;;;;;;;5.20;100.00;100317.34;180651;1264;44266;-86
2023/11/17 17:33:54;;;;;;;7.90;5.10;;;;;;;5.12;100.00;100322.18;180660;1265;44035;-88
2023/11/17 17:37:58;;;;;;;6.30;4.00;;;;;;;5.08;100.00;100328.75;180692;1262;44004;-87
2023/11/17 17:42:03;;;;;;;4.60;3.80;;;;;;;5.06;100.00;100327.80;180509;1263;57283;-85
2023/11/17 17:46:07;;;;;;;4.30;3.30;;;;;;;5.06;100.00;100328.67;180694;1264;43765;-86
2023/11/17 17:50:14;;;;;;;6.40;4.90;;;;;;;5.15;100.00;100334.52;180606;1264;43771;-85
2023/11/17 17:54:18;;;;;;;5.20;3.10;;;;;;;5.15;100.00;100331.30;180722;1264;44448;-86
2023/11/17 17:58:22;;;;;;;7.40;4.80;;;;;;;5.18;100.00;100339.23;180739;1264;43911;-85
2023/11/17 18:02:27;;;;;;;5.10;3.70;;;;;;;5.20;100.00;100339.14;180612;1264;58273;-87
2023/11/17 18:06:32;;;;;;;5.80;4.80;;;;;;;5.16;100.00;100334.60;180623;1264;43783;-85
2023/11/17 18:10:35;;;;;;;3.80;3.40;;;;;;;5.23;100.00;100338.04;180735;1265;43820;-87
2023/11/17 18:14:39;;;;;;;6.30;3.40;;;;;;;5.29;100.00;100332.10;180655;1263;43722;-87
2023/11/17 18:18:43;;;;;;;4.10;3.00;;;;;;;5.24;100.00;100341.19;180609;1263;43998;-88
2023/11/17 18:22:49;;;;;;;4.90;3.40;;;;;;;5.26;100.00;100343.90;180592;1267;58237;-88
2023/11/17 18:26:54;;;;;;;4.60;4.20;;;;;;;5.15;100.00;100349.79;180649;1264;43820;-88
2023/11/17 18:31:03;;;;;;;6.80;4.30;;;;;;;5.11;100.00;100349.16;180672;1264;44003;-86
2023/11/17 18:35:11;;;;;;;6.60;4.40;;;;;;;5.17;100.00;100353.19;180657;1264;44397;-87
2023/11/17 18:39:15;;;;;;;4.10;3.20;;;;;;;5.19;100.00;100355.71;180561;1264;43781;-88
2023/11/17 18:43:18;;;;;;;5.80;4.30;;;;;;;5.20;100.00;100355.30;180439;1264;58585;-86
2023/11/17 18:47:23;;;;;;;4.80;3.60;;;;;;;5.26;100.00;100351.96;180524;1263;43786;-88
2023/11/17 18:51:26;;;;;;;4.90;3.60;;;;;;;5.22;100.00;100355.00;180698;1263;44034;-85